Time;durP1;ratioP1;P1;durP2;ratioP2;P2;SDS_P1;SDS_P2;PMS_P1;PMS_P2;Temp;Humidity;BMP_temperature;BMP_pressure;BME280_temperature;BME280_humidity;BME280_pressure;Samples;Min_cycle;Max_cycle;Signal;HPM_P1;HPM_P2
2022/10/14 00:02:26;;;;;;;19.17;15.33;;;;;;;15.34;74.88;100260.84;5132891;28;20499;-60
2022/10/14 00:04:54;;;;;;;23.05;17.75;;;;;;;15.29;75.52;100249.06;5132663;28;20047;-60
2022/10/14 00:07:21;;;;;;;18.90;16.25;;;;;;;15.32;74.76;100248.34;5130064;27;20051;-60
2022/10/14 00:09:49;;;;;;;21.48;16.55;;;;;;;15.29;75.30;100261.09;5131738;27;20059;-60
2022/10/14 00:12:16;;;;;;;20.27;16.73;;;;;;;15.28;75.31;100250.22;5133105;28;20062;-60
2022/10/14 00:14:43;;;;;;;23.80;18.88;;;;;;;15.28;75.10;100247.41;5132688;28;20496;-60
2022/10/14 00:17:12;;;;;;;19.63;17.45;;;;;;;15.07;76.89;100247.53;5132633;28;20058;-60
2022/10/14 00:19:39;;;;;;;21.30;16.83;;;;;;;15.17;76.54;100244.25;5132558;28;20055;-60
2022/10/14 00:22:07;;;;;;;22.73;18.20;;;;;;;15.13;76.18;100234.91;5131832;27;20055;-60
2022/10/14 00:24:34;;;;;;;22.17;17.80;;;;;;;15.04;76.85;100239.81;5132583;28;20059;-60
2022/10/14 00:27:04;;;;;;;22.55;17.98;;;;;;;15.14;76.49;100239.34;5132624;28;20047;-60
2022/10/14 00:29:32;;;;;;;28.52;21.48;;;;;;;15.10;76.47;100238.41;5132196;28;20062;-59
2022/10/14 00:31:59;;;;;;;22.35;18.27;;;;;;;15.11;77.69;100231.63;5132520;27;20059;-61
2022/10/14 00:34:28;;;;;;;26.88;20.30;;;;;;;14.96;77.44;100230.34;5133494;27;20051;-63
2022/10/14 00:36:55;;;;;;;25.67;19.43;;;;;;;15.07;77.41;100237.13;5135922;27;20054;-60
2022/10/14 00:39:22;;;;;;;25.83;19.92;;;;;;;14.95;77.59;100237.09;5136100;27;20468;-60
2022/10/14 00:41:50;;;;;;;23.33;17.58;;;;;;;14.95;77.57;100237.09;5136090;27;20055;-60
2022/10/14 00:44:54;;;;;;;23.73;19.27;;;;;;;14.98;77.82;100237.25;5135939;27;20526;-60
2022/10/14 00:47:24;;;;;;;24.23;18.65;;;;;;;14.89;78.32;100235.69;5136229;27;20051;-59
2022/10/14 00:49:53;;;;;;;23.95;17.83;;;;;;;14.93;77.63;100231.88;5134869;27;20051;-60
2022/10/14 00:52:23;;;;;;;24.57;17.80;;;;;;;14.99;77.23;100238.06;5135735;27;20055;-60
2022/10/14 00:54:55;;;;;;;23.02;18.35;;;;;;;15.04;77.17;100231.41;5136033;27;20058;-59
2022/10/14 00:57:25;;;;;;;23.50;18.60;;;;;;;14.99;77.58;100227.66;5135676;27;20062;-59
2022/10/14 00:59:56;;;;;;;19.70;16.55;;;;;;;15.09;76.74;100233.97;5135759;27;20407;-59
2022/10/14 01:02:23;;;;;;;23.20;17.83;;;;;;;15.09;75.80;100228.34;5135927;27;20126;-60
2022/10/14 01:04:51;;;;;;;18.80;15.65;;;;;;;15.06;76.90;100226.28;5132073;27;20494;-59
2022/10/14 01:07:31;;;;;;;19.80;15.13;;;;;;;15.05;77.04;100221.81;5135883;27;20051;-60
2022/10/14 01:10:05;;;;;;;17.38;15.10;;;;;;;14.99;76.43;100219.25;5135551;27;20525;-59
2022/10/14 01:12:37;;;;;;;16.63;14.82;;;;;;;14.96;76.42;100222.75;5135752;27;20051;-60
2022/10/14 01:15:12;;;;;;;15.98;14.02;;;;;;;14.99;76.49;100227.66;5134002;27;20062;-59
2022/10/14 01:17:50;;;;;;;15.70;13.48;;;;;;;14.94;77.50;100224.28;5135452;27;20062;-59
2022/10/14 01:20:39;;;;;;;14.48;12.45;;;;;;;14.96;77.11;100227.53;5133835;27;20062;-61
2022/10/14 01:23:27;;;;;;;18.00;15.00;;;;;;;14.90;77.09;100223.34;5123503;27;20070;-59
2022/10/14 01:26:02;;;;;;;14.95;13.27;;;;;;;14.95;76.53;100221.13;5114313;28;20074;-60
2022/10/14 01:28:43;;;;;;;15.45;13.77;;;;;;;14.98;77.09;100222.41;5114868;28;20064;-60
2022/10/14 01:31:18;;;;;;;17.00;13.20;;;;;;;14.85;77.53;100220.78;5134635;27;20055;-60
2022/10/14 01:33:49;;;;;;;14.38;12.60;;;;;;;14.95;76.48;100209.06;5135128;27;20055;-60
2022/10/14 01:36:22;;;;;;;13.73;12.32;;;;;;;14.93;76.71;100217.84;5135300;27;20054;-60
2022/10/14 01:38:54;;;;;;;14.63;13.05;;;;;;;15.01;77.05;100216.06;5135185;27;20050;-60
2022/10/14 01:41:25;;;;;;;16.60;12.73;;;;;;;14.88;77.16;100209.66;5135016;27;20369;-59
2022/10/14 01:43:54;;;;;;;14.57;12.52;;;;;;;14.97;76.26;100210.38;5132470;27;20411;-61
2022/10/14 01:46:25;;;;;;;15.00;12.80;;;;;;;14.93;77.07;100201.03;5134066;27;20055;-61
2022/10/14 01:48:56;;;;;;;13.95;11.75;;;;;;;14.80;77.34;100207.78;5134848;27;20058;-60
2022/10/14 01:51:29;;;;;;;13.93;12.35;;;;;;;15.01;76.88;100202.91;5135201;27;20074;-60
2022/10/14 01:54:05;;;;;;;13.23;11.60;;;;;;;15.10;75.66;100205.56;5135043;27;20491;-60
2022/10/14 01:56:44;;;;;;;14.65;11.68;;;;;;;15.12;75.64;100199.59;5133684;27;20051;-60
2022/10/14 01:59:18;;;;;;;13.40;11.98;;;;;;;15.12;75.32;100203.25;5134419;27;20495;-60
2022/10/14 02:01:46;;;;;;;11.27;10.13;;;;;;;15.04;75.68;100192.94;5134889;27;20459;-60
2022/10/14 02:04:15;;;;;;;12.37;11.17;;;;;;;14.99;75.65;100198.78;5131681;27;20423;-59
2022/10/14 02:06:48;;;;;;;12.43;10.80;;;;;;;14.96;76.66;100197.50;5134179;27;20393;-59
2022/10/14 02:09:23;;;;;;;10.20;9.20;;;;;;;14.88;76.86;100200.44;5134366;27;20051;-60
2022/10/14 02:12:04;;;;;;;10.05;8.98;;;;;;;14.85;76.91;100193.53;5134177;27;20062;-60
2022/10/14 02:14:39;;;;;;;9.32;8.32;;;;;;;14.89;77.37;100188.88;5132848;27;20067;-60
2022/10/14 02:17:17;;;;;;;10.60;9.25;;;;;;;14.95;77.26;100184.66;5134140;27;20051;-60
2022/10/14 02:19:50;;;;;;;8.90;8.00;;;;;;;15.07;76.72;100183.00;5133892;27;20059;-60
2022/10/14 02:22:25;;;;;;;10.30;9.25;;;;;;;15.01;76.90;100177.66;5134207;27;20063;-60
2022/10/14 02:24:55;;;;;;;9.65;8.63;;;;;;;15.06;76.86;100179.41;5134143;27;20055;-60
2022/10/14 02:27:25;;;;;;;9.73;8.48;;;;;;;15.07;76.94;100172.59;5131811;27;20058;-60
2022/10/14 02:29:55;;;;;;;10.82;9.73;;;;;;;15.09;77.67;100175.06;5119856;27;20430;-59
2022/10/14 02:32:26;;;;;;;10.63;9.52;;;;;;;15.16;76.96;100162.09;5132162;27;20055;-58
2022/10/14 02:34:58;;;;;;;9.45;8.45;;;;;;;15.22;76.50;100165.44;5133863;27;20062;-60
2022/10/14 02:37:27;;;;;;;10.27;8.73;;;;;;;15.28;76.75;100161.22;5133856;27;20055;-60
2022/10/14 02:40:00;;;;;;;9.80;8.80;;;;;;;15.32;75.96;100164.16;5132932;27;20497;-59
2022/10/14 02:42:28;;;;;;;9.65;8.75;;;;;;;15.32;76.06;100164.97;5133595;27;20406;-59
2022/10/14 02:44:58;;;;;;;9.00;8.10;;;;;;;15.36;75.96;100154.66;5133384;27;20140;-58
2022/10/14 02:47:27;;;;;;;9.88;8.80;;;;;;;15.40;76.46;100158.41;5133579;27;20058;-60
2022/10/14 02:49:55;;;;;;;10.90;9.10;;;;;;;15.41;75.72;100156.41;5133660;27;20051;-59
2022/10/14 02:52:22;;;;;;;10.80;9.32;;;;;;;15.43;76.17;100152.09;5133554;27;20055;-52
2022/10/14 02:54:49;;;;;;;10.25;9.23;;;;;;;15.46;76.16;100149.75;5132234;27;20058;-53
2022/10/14 02:57:17;;;;;;;10.52;9.43;;;;;;;15.47;76.19;100148.56;5132910;27;20074;-55
2022/10/14 02:59:44;;;;;;;10.30;9.30;;;;;;;15.49;75.78;100151.81;5133344;27;20410;-54
2022/10/14 03:02:11;;;;;;;11.85;10.65;;;;;;;15.48;76.04;100151.00;5131318;27;20051;-53
2022/10/14 03:04:40;;;;;;;11.85;10.65;;;;;;;15.50;75.60;100150.66;5133462;27;20415;-54
2022/10/14 03:07:07;;;;;;;11.32;10.18;;;;;;;15.51;75.95;100144.69;5131935;27;21822;-53
2022/10/14 03:09:34;;;;;;;10.30;9.30;;;;;;;15.53;74.83;100138.72;5133228;27;20415;-54
2022/10/14 03:12:01;;;;;;;12.50;9.68;;;;;;;15.53;75.49;100136.72;5133017;27;20621;-53
2022/10/14 03:14:29;;;;;;;10.80;9.70;;;;;;;15.55;75.11;100137.19;5132898;27;20059;-54
2022/10/14 03:16:56;;;;;;;11.77;9.50;;;;;;;15.56;75.51;100130.41;5132970;27;20062;-54
2022/10/14 03:19:23;;;;;;;10.32;9.32;;;;;;;15.56;75.97;100126.75;5133114;27;20058;-53
2022/10/14 03:21:52;;;;;;;10.95;9.88;;;;;;;15.56;75.25;100121.16;5131683;27;20439;-52
2022/10/14 03:24:19;;;;;;;10.05;9.02;;;;;;;15.61;74.71;100112.47;5132899;27;20055;-54
2022/10/14 03:26:46;;;;;;;10.65;9.00;;;;;;;15.53;75.25;100125.50;5132712;27;20059;-55
2022/10/14 03:29:14;;;;;;;9.88;8.32;;;;;;;15.51;74.78;100113.78;5132779;28;20055;-55
2022/10/14 03:31:41;;;;;;;9.88;8.95;;;;;;;15.48;74.36;100116.53;5132874;28;20499;-54
2022/10/14 03:34:08;;;;;;;8.20;7.40;;;;;;;15.50;75.15;100119.78;5133060;28;20059;-54
2022/10/14 03:36:36;;;;;;;7.55;6.80;;;;;;;15.48;74.36;100114.53;5131298;27;20062;-54
2022/10/14 03:39:04;;;;;;;7.70;6.93;;;;;;;15.49;74.54;100112.53;5132641;28;20055;-54
2022/10/14 03:41:31;;;;;;;7.18;6.47;;;;;;;15.49;74.71;100113.34;5133217;28;20075;-55
2022/10/14 03:43:59;;;;;;;8.63;7.80;;;;;;;15.49;75.18;100115.34;5133186;28;20051;-52
2022/10/14 03:46:26;;;;;;;7.25;6.55;;;;;;;15.51;75.26;100108.19;5132901;28;20411;-54
2022/10/14 03:48:53;;;;;;;8.82;7.15;;;;;;;15.53;74.88;100102.22;5132850;28;20055;-53
2022/10/14 03:51:21;;;;;;;8.50;7.68;;;;;;;15.54;74.63;100106.66;5132187;27;20055;-55
2022/10/14 03:53:48;;;;;;;7.80;7.10;;;;;;;15.54;74.76;100118.72;5132400;28;20047;-55
2022/10/14 03:56:17;;;;;;;6.68;6.00;;;;;;;15.55;74.91;100105.50;5133077;28;20054;-53
2022/10/14 03:58:44;;;;;;;4.18;3.78;;;;;;;15.46;73.99;100104.84;5132754;28;20055;-54
2022/10/14 04:01:11;;;;;;;4.88;3.70;;;;;;;15.48;73.95;100103.31;5132492;28;20465;-53
2022/10/14 04:03:40;;;;;;;4.68;3.20;;;;;;;15.26;74.82;100096.22;5129112;27;20510;-54
2022/10/14 04:06:07;;;;;;;3.65;3.10;;;;;;;15.16;75.64;100099.53;5131944;27;20055;-54
2022/10/14 04:08:34;;;;;;;2.60;2.20;;;;;;;15.21;74.52;100105.72;5134358;27;20483;-53
2022/10/14 04:11:01;;;;;;;4.40;2.60;;;;;;;15.06;75.15;100103.66;5136851;27;20066;-53
2022/10/14 04:13:30;;;;;;;3.40;2.60;;;;;;;15.17;75.27;100109.59;5136598;27;20062;-55
2022/10/14 04:15:57;;;;;;;4.03;2.60;;;;;;;15.18;74.70;100100.81;5132601;27;20052;-55
2022/10/14 04:18:25;;;;;;;2.97;2.55;;;;;;;15.23;74.93;100096.94;5136328;27;20055;-54
2022/10/14 04:20:52;;;;;;;5.57;2.92;;;;;;;15.32;74.29;100103.22;5136565;27;20482;-55
2022/10/14 04:23:19;;;;;;;5.05;3.58;;;;;;;15.37;74.99;100097.38;5136270;27;20063;-55
2022/10/14 04:25:47;;;;;;;3.92;3.45;;;;;;;15.38;74.26;100099.00;5136333;27;20403;-54
2022/10/14 04:28:14;;;;;;;7.70;3.75;;;;;;;15.46;74.59;100096.41;5136434;27;20047;-55
2022/10/14 04:30:43;;;;;;;5.60;5.10;;;;;;;15.51;73.98;100090.53;5135557;27;20411;-54
2022/10/14 04:33:10;;;;;;;5.63;5.13;;;;;;;15.50;74.76;100095.34;5136105;27;20055;-55
2022/10/14 04:35:37;;;;;;;6.03;5.38;;;;;;;15.53;74.64;100094.63;5136481;27;20055;-54
2022/10/14 04:38:05;;;;;;;9.20;6.07;;;;;;;15.59;74.17;100093.19;5136344;27;20047;-55
2022/10/14 04:40:32;;;;;;;5.80;5.22;;;;;;;15.59;73.72;100090.38;5136160;27;20059;-55
2022/10/14 04:42:59;;;;;;;7.05;6.28;;;;;;;15.61;74.05;100092.84;5136096;27;20059;-55
2022/10/14 04:45:27;;;;;;;6.28;5.32;;;;;;;15.61;74.63;100090.03;5134905;27;20062;-55
2022/10/14 04:47:55;;;;;;;6.60;5.97;;;;;;;15.67;73.35;100079.38;5132121;27;20051;-54
2022/10/14 04:50:23;;;;;;;6.77;5.63;;;;;;;15.66;74.30;100083.34;5125476;27;20054;-55
2022/10/14 04:52:50;;;;;;;7.22;5.55;;;;;;;15.66;73.71;100075.72;5130740;27;20058;-55
2022/10/14 04:55:17;;;;;;;7.55;5.72;;;;;;;15.70;73.97;100073.00;5135371;27;20487;-55
2022/10/14 04:57:45;;;;;;;5.43;4.93;;;;;;;15.68;74.17;100076.19;5135303;27;20058;-55
2022/10/14 05:00:14;;;;;;;5.18;4.68;;;;;;;15.63;73.65;100084.88;5135699;27;20055;-56
2022/10/14 05:02:41;;;;;;;6.53;5.83;;;;;;;15.62;74.54;100086.03;5133329;27;20062;-55
2022/10/14 05:05:10;;;;;;;6.18;5.50;;;;;;;15.62;74.16;100081.25;5119670;27;20488;-54
2022/10/14 05:07:38;;;;;;;5.85;5.20;;;;;;;15.61;74.25;100085.22;5143661;27;20414;-55
2022/10/14 05:10:06;;;;;;;6.68;5.13;;;;;;;15.63;74.00;100085.69;5141432;27;20047;-54
2022/10/14 05:12:33;;;;;;;5.20;4.57;;;;;;;15.67;73.86;100082.97;5146039;27;20077;-55
2022/10/14 05:15:01;;;;;;;8.38;5.75;;;;;;;15.68;73.95;100078.97;5140435;27;20586;-54
2022/10/14 05:17:28;;;;;;;7.28;5.80;;;;;;;15.67;74.40;100088.59;5135577;27;20046;-56
2022/10/14 05:19:55;;;;;;;6.75;5.13;;;;;;;15.68;74.73;100083.78;5130972;27;20202;-55
2022/10/14 05:22:25;;;;;;;6.18;5.15;;;;;;;15.68;74.65;100078.97;5148009;27;20423;-56
2022/10/14 05:24:52;;;;;;;5.88;4.75;;;;;;;15.68;74.43;100078.97;5149487;27;20064;-54
2022/10/14 05:27:19;;;;;;;5.25;4.40;;;;;;;15.68;74.99;100081.78;5148223;27;20105;-56
2022/10/14 05:29:47;;;;;;;4.70;4.20;;;;;;;15.68;74.77;100076.19;5152560;27;20058;-55
2022/10/14 05:32:15;;;;;;;4.93;4.43;;;;;;;15.68;74.34;100078.16;5144367;27;20073;-55
2022/10/14 05:34:42;;;;;;;6.65;4.65;;;;;;;15.69;74.76;100079.81;5130472;27;20055;-55
2022/10/14 05:37:09;;;;;;;4.78;4.28;;;;;;;15.68;74.93;100067.75;5133373;27;20051;-56
2022/10/14 05:39:38;;;;;;;4.88;4.38;;;;;;;15.70;74.62;100064.59;5134605;27;20055;-53
2022/10/14 05:42:05;;;;;;;5.63;4.65;;;;;;;15.69;75.27;100069.41;5134416;27;20408;-54
2022/10/14 05:44:32;;;;;;;5.80;4.53;;;;;;;15.69;74.82;100072.22;5134873;27;20055;-56
2022/10/14 05:47:00;;;;;;;5.05;4.57;;;;;;;15.71;74.46;100072.66;5134733;27;20059;-55
2022/10/14 05:49:27;;;;;;;7.70;4.78;;;;;;;15.72;74.57;100068.69;5132345;27;20498;-56
2022/10/14 05:51:54;;;;;;;6.88;5.22;;;;;;;15.72;75.04;100065.88;5134418;27;20059;-56
2022/10/14 05:54:21;;;;;;;5.68;5.15;;;;;;;15.73;74.50;100064.72;5134392;27;20059;-56
2022/10/14 05:56:50;;;;;;;6.45;5.53;;;;;;;15.73;74.91;100061.91;5134605;27;20062;-55
2022/10/14 05:59:17;;;;;;;6.13;4.53;;;;;;;15.75;74.91;100062.38;5134291;27;20062;-56
2022/10/14 06:01:44;;;;;;;5.93;4.82;;;;;;;15.73;75.00;100064.72;5133110;27;20055;-56
2022/10/14 06:04:17;;;;;;;4.85;4.00;;;;;;;15.76;74.08;100052.75;5132623;27;20059;-56
2022/10/14 06:06:44;;;;;;;4.75;3.97;;;;;;;15.73;74.79;100058.31;5133974;27;20518;-55
2022/10/14 06:09:12;;;;;;;4.88;4.45;;;;;;;15.65;74.86;100053.63;5133932;27;20047;-54
2022/10/14 06:11:39;;;;;;;4.55;3.72;;;;;;;15.63;75.32;100054.78;5131298;27;20059;-54
2022/10/14 06:14:08;;;;;;;4.20;3.78;;;;;;;15.64;74.27;100050.00;5134022;27;20055;-54
2022/10/14 06:16:35;;;;;;;4.80;4.40;;;;;;;15.60;75.35;100052.72;5133828;27;20361;-54
2022/10/14 06:19:03;;;;;;;4.97;4.47;;;;;;;15.64;74.51;100052.78;5133899;27;20047;-54
2022/10/14 06:21:30;;;;;;;6.25;4.80;;;;;;;15.68;74.77;100050.91;5133831;27;20050;-55
2022/10/14 06:23:57;;;;;;;5.55;4.75;;;;;;;15.72;75.14;100049.03;5131396;27;20055;-55
2022/10/14 06:26:24;;;;;;;5.90;5.10;;;;;;;15.76;75.31;100041.53;5113411;28;20071;-55
2022/10/14 06:28:51;;;;;;;5.70;5.18;;;;;;;15.85;74.78;100043.34;5125246;27;20422;-55
2022/10/14 06:31:20;;;;;;;7.57;5.85;;;;;;;15.93;74.78;100042.38;5132247;27;20055;-55
2022/10/14 06:33:48;;;;;;;6.20;4.88;;;;;;;16.03;74.75;100033.41;5132095;27;20055;-55
2022/10/14 06:36:15;;;;;;;4.63;3.90;;;;;;;16.16;74.53;100032.13;5133633;27;20047;-55
2022/10/14 06:38:42;;;;;;;4.85;4.30;;;;;;;16.29;73.66;100032.03;5133947;27;20055;-55
2022/10/14 06:41:09;;;;;;;4.60;3.70;;;;;;;16.42;72.94;100034.38;5132639;27;20422;-55
2022/10/14 06:43:37;;;;;;;4.85;4.35;;;;;;;16.51;72.53;100025.75;5133501;27;20522;-54
2022/10/14 06:46:05;;;;;;;6.28;3.80;;;;;;;16.63;72.52;100022.84;5131207;27;20423;-57
2022/10/14 06:48:33;;;;;;;4.57;3.83;;;;;;;16.77;72.42;100024.31;5129572;27;20051;-56
2022/10/14 06:51:01;;;;;;;3.30;2.97;;;;;;;16.90;72.08;100028.66;5130065;27;20058;-57
2022/10/14 06:53:29;;;;;;;4.43;3.15;;;;;;;17.11;71.29;100024.69;5125758;27;20411;-57
2022/10/14 06:56:00;;;;;;;3.30;2.38;;;;;;;17.45;70.62;100015.34;5113983;27;20059;-57
2022/10/14 06:58:28;;;;;;;2.85;2.28;;;;;;;17.78;69.18;100015.94;5125177;27;20066;-57
2022/10/14 07:01:00;;;;;;;3.42;2.50;;;;;;;18.08;67.23;100013.31;5127838;27;20059;-57
2022/10/14 07:03:27;;;;;;;2.30;1.60;;;;;;;18.43;64.84;100009.41;5135109;27;20051;-58
2022/10/14 07:05:56;;;;;;;2.20;2.00;;;;;;;18.03;66.55;100007.97;5138939;27;20482;-57
2022/10/14 07:08:23;;;;;;;5.80;2.55;;;;;;;17.81;66.92;100016.00;5144785;27;20051;-57
2022/10/14 07:10:51;;;;;;;2.28;1.60;;;;;;;17.80;65.91;100017.19;5146088;27;20530;-57
2022/10/14 07:13:18;;;;;;;2.40;1.83;;;;;;;17.51;66.87;100017.84;5142764;27;20058;-57
2022/10/14 07:15:47;;;;;;;2.50;1.70;;;;;;;17.56;66.08;100009.91;5138668;27;20402;-57
2022/10/14 07:18:15;;;;;;;3.50;2.03;;;;;;;17.49;66.51;100015.44;5145822;27;20058;-57
2022/10/14 07:20:42;;;;;;;1.90;1.40;;;;;;;17.41;67.36;100017.28;5145111;27;20047;-56
2022/10/14 07:23:11;;;;;;;3.42;1.85;;;;;;;17.64;67.30;100022.94;5142356;27;20424;-57
2022/10/14 07:25:38;;;;;;;2.47;1.93;;;;;;;17.59;66.51;100011.97;5148737;27;20058;-57
2022/10/14 07:28:08;;;;;;;3.33;1.63;;;;;;;17.46;66.74;100007.72;5147453;27;20055;-57
2022/10/14 07:30:36;;;;;;;2.08;1.40;;;;;;;17.78;66.07;99997.03;5123923;27;20483;-57
2022/10/14 07:33:03;;;;;;;2.42;1.50;;;;;;;18.43;64.89;100007.41;5126899;27;20050;-57
2022/10/14 07:35:31;;;;;;;2.72;1.60;;;;;;;18.85;63.39;100005.63;5140663;27;20057;-57
2022/10/14 07:37:59;;;;;;;3.53;1.75;;;;;;;19.42;61.20;100002.69;5149247;27;20055;-57
2022/10/14 07:40:28;;;;;;;1.90;1.50;;;;;;;19.43;60.54;100007.16;5148955;27;20047;-57
2022/10/14 07:42:56;;;;;;;3.15;1.40;;;;;;;18.99;61.89;100008.63;5147744;27;20058;-57
2022/10/14 07:45:23;;;;;;;2.50;1.80;;;;;;;19.05;61.08;100007.09;5144687;27;20062;-57
2022/10/14 07:47:51;;;;;;;2.97;1.70;;;;;;;18.90;61.87;100004.47;5143216;27;20054;-57
2022/10/14 07:50:19;;;;;;;2.28;1.85;;;;;;;18.62;61.78;100000.81;5146882;27;20047;-58
2022/10/14 07:52:46;;;;;;;2.58;2.10;;;;;;;18.52;62.97;100001.50;5142984;27;20051;-57
2022/10/14 07:55:14;;;;;;;2.45;2.03;;;;;;;18.15;63.84;99993.69;5135726;27;20171;-57
2022/10/14 07:57:42;;;;;;;3.22;2.20;;;;;;;18.10;64.27;99996.81;5142688;27;20058;-57
2022/10/14 08:00:11;;;;;;;4.40;2.13;;;;;;;17.91;64.55;99994.91;5141225;27;20483;-57
2022/10/14 08:02:38;;;;;;;3.05;2.33;;;;;;;17.62;65.05;99996.34;5137517;27;20078;-57
2022/10/14 08:05:06;;;;;;;3.67;2.20;;;;;;;17.77;64.88;100012.31;5147741;27;20055;-57
2022/10/14 08:07:33;;;;;;;2.55;1.90;;;;;;;17.40;66.41;100001.56;5145361;27;20544;-58
2022/10/14 08:10:00;;;;;;;5.35;2.47;;;;;;;17.10;67.34;99995.72;5142671;27;20051;-57
2022/10/14 08:12:27;;;;;;;3.40;2.35;;;;;;;17.30;66.96;100001.34;5138987;27;20054;-58
2022/10/14 08:14:57;;;;;;;4.53;2.40;;;;;;;17.42;66.62;100002.00;5146911;27;20128;-57
2022/10/14 08:17:24;;;;;;;2.80;2.40;;;;;;;17.30;66.95;99999.34;5151535;27;20065;-57
2022/10/14 08:19:51;;;;;;;3.38;2.35;;;;;;;17.27;67.18;100002.09;5146887;27;20062;-57
2022/10/14 08:22:18;;;;;;;3.50;2.50;;;;;;;17.36;66.13;100000.66;5139020;27;20501;-56
2022/10/14 08:24:48;;;;;;;3.45;2.10;;;;;;;17.50;66.45;99996.53;5150693;27;20064;-57
2022/10/14 08:27:16;;;;;;;2.63;2.20;;;;;;;17.65;66.71;99981.50;5138575;27;20056;-58
2022/10/14 08:29:44;;;;;;;3.83;2.42;;;;;;;17.79;65.25;99987.41;5136279;27;20054;-57
2022/10/14 08:32:12;;;;;;;2.60;2.15;;;;;;;17.96;65.73;99997.38;5140529;27;20043;-57
2022/10/14 08:34:39;;;;;;;3.10;2.20;;;;;;;18.03;65.09;99988.22;5135889;27;20545;-57
2022/10/14 08:37:07;;;;;;;2.75;2.20;;;;;;;18.42;64.23;99986.03;5142569;27;20070;-57
2022/10/14 08:39:34;;;;;;;2.17;1.83;;;;;;;18.56;63.41;99981.78;5139944;27;20051;-56
2022/10/14 08:42:30;;;;;;;2.30;1.45;;;;;;;18.51;62.46;99977.31;5138572;27;20491;-57
2022/10/14 08:45:06;;;;;;;2.55;1.70;;;;;;;18.47;63.45;99976.44;5137940;27;20054;-56
2022/10/14 08:47:40;;;;;;;2.08;1.40;;;;;;;18.56;62.65;99978.97;5149340;27;20055;-56
2022/10/14 08:50:20;;;;;;;3.55;2.08;;;;;;;18.27;63.16;99975.75;5124130;27;20415;-56
2022/10/14 08:52:53;;;;;;;1.65;1.20;;;;;;;18.18;64.51;99970.34;5125841;27;20055;-56
2022/10/14 08:55:28;;;;;;;1.65;1.27;;;;;;;18.16;64.30;99974.75;5149731;27;20042;-56
2022/10/14 08:58:00;;;;;;;1.83;1.30;;;;;;;17.97;64.96;99970.81;5134431;27;20051;-55
2022/10/14 09:00:30;;;;;;;3.63;1.25;;;;;;;18.10;64.94;99973.44;5154651;27;20046;-56
2022/10/14 09:03:04;;;;;;;1.90;1.05;;;;;;;18.04;64.44;99965.31;5148646;27;20051;-57
2022/10/14 09:05:32;;;;;;;1.83;0.80;;;;;;;17.77;64.85;99963.63;5141872;27;20058;-56
2022/10/14 09:08:01;;;;;;;2.70;1.02;;;;;;;17.80;65.35;99965.66;5135692;27;20058;-58
2022/10/14 09:10:31;;;;;;;2.85;0.85;;;;;;;17.70;65.36;99961.50;5140664;27;20047;-58
2022/10/14 09:13:06;;;;;;;2.30;0.90;;;;;;;17.65;66.48;99961.78;5136200;27;20530;-58
2022/10/14 09:15:38;;;;;;;1.63;0.85;;;;;;;17.75;66.38;99958.34;5135025;27;20059;-56
2022/10/14 09:18:17;;;;;;;1.40;0.90;;;;;;;17.61;66.29;99946.84;5149921;27;20061;-57
2022/10/14 09:20:46;;;;;;;1.50;1.00;;;;;;;17.41;67.54;99938.44;5137858;27;20483;-56
2022/10/14 09:23:17;;;;;;;1.20;0.80;;;;;;;17.49;66.66;99932.94;5148000;27;20714;-56
2022/10/14 09:25:54;;;;;;;1.50;0.82;;;;;;;17.50;66.86;99935.38;5131148;27;20051;-57
2022/10/14 09:28:24;;;;;;;1.73;1.10;;;;;;;17.52;66.56;99924.56;5136829;27;20066;-57
2022/10/14 09:30:52;;;;;;;0.82;0.50;;;;;;;17.60;66.35;99920.69;5137663;27;20471;-57
2022/10/14 09:33:21;;;;;;;2.10;0.75;;;;;;;17.84;65.92;99927.13;5152712;27;20595;-57
2022/10/14 09:35:48;;;;;;;;;;;;;;;17.92;65.56;99922.44;5138891;27;20062;-58
2022/10/14 09:38:17;;;;;;;1.27;0.63;;;;;;;18.04;64.95;99925.06;5151911;27;19919;-57
2022/10/14 09:40:47;;;;;;;1.20;0.80;;;;;;;18.29;64.06;99918.97;5133967;27;20043;-57
2022/10/14 09:43:18;;;;;;;0.95;0.60;;;;;;;18.33;64.38;99917.00;5150166;27;20057;-57
2022/10/14 09:45:52;;;;;;;1.55;0.75;;;;;;;18.67;63.41;99918.69;5147704;27;20065;-57
2022/10/14 09:48:31;;;;;;;0.88;0.52;;;;;;;19.05;62.28;99916.78;5154420;27;20502;-58
2022/10/14 09:51:01;;;;;;;0.65;0.50;;;;;;;19.38;61.01;99917.94;5147926;27;20054;-57
2022/10/14 09:53:32;;;;;;;1.20;0.50;;;;;;;19.53;60.14;99907.59;5149982;27;20396;-57
2022/10/14 09:56:02;;;;;;;1.10;0.60;;;;;;;20.07;58.79;99896.75;5130666;27;20055;-58
2022/10/14 09:58:38;;;;;;;1.13;0.60;;;;;;;20.71;57.11;99898.34;5147781;27;20048;-58
2022/10/14 10:01:11;;;;;;;1.27;0.90;;;;;;;23.17;51.17;99899.47;5134164;27;20050;-58
2022/10/14 10:03:40;;;;;;;0.98;0.63;;;;;;;23.73;49.18;99907.22;5135299;27;20058;-57
2022/10/14 10:06:10;;;;;;;0.93;0.65;;;;;;;24.12;47.83;99906.91;5148472;27;20422;-58
2022/10/14 10:08:40;;;;;;;1.30;0.70;;;;;;;24.36;46.31;99904.22;5132420;27;20055;-58
2022/10/14 10:11:12;;;;;;;1.60;0.52;;;;;;;23.70;48.08;99900.34;5145571;27;20158;-57
2022/10/14 10:13:43;;;;;;;1.73;0.80;;;;;;;23.48;48.94;99894.81;5138852;27;20047;-57
2022/10/14 10:16:23;;;;;;;1.70;0.70;;;;;;;23.00;49.70;99889.81;5129066;27;20055;-58
2022/10/14 10:18:54;;;;;;;0.80;0.50;;;;;;;22.73;50.36;99881.00;5145782;27;20061;-57
2022/10/14 10:21:24;;;;;;;1.00;0.60;;;;;;;22.23;51.72;99896.16;5146513;27;20067;-58
2022/10/14 10:23:55;;;;;;;1.27;0.60;;;;;;;22.53;50.90;99894.84;5149267;27;20050;-57
2022/10/14 10:26:26;;;;;;;0.70;0.50;;;;;;;22.75;50.13;99886.28;5134346;27;20055;-58
2022/10/14 10:28:56;;;;;;;1.00;0.57;;;;;;;22.47;50.06;99891.66;5132121;27;20075;-57
2022/10/14 10:31:51;;;;;;;1.20;0.77;;;;;;;21.86;52.16;99879.59;5131545;27;20423;-57
2022/10/14 10:34:47;;;;;;;1.15;0.75;;;;;;;22.07;51.69;99879.56;5119207;27;20059;-58
2022/10/14 10:37:27;;;;;;;1.20;0.63;;;;;;;20.99;53.76;99880.66;5106908;27;20501;-58
2022/10/14 10:40:19;;;;;;;1.00;0.65;;;;;;;20.78;54.96;99884.22;5133283;27;20396;-58
2022/10/14 10:43:00;;;;;;;1.00;0.60;;;;;;;20.54;55.45;99869.56;5125504;27;20058;-58
2022/10/14 10:45:41;;;;;;;1.63;1.13;;;;;;;20.43;56.09;99874.31;5132703;27;20419;-58
2022/10/14 10:48:17;;;;;;;1.30;0.90;;;;;;;20.20;57.38;99880.25;5133631;27;20059;-58
2022/10/14 10:50:55;;;;;;;2.30;1.48;;;;;;;19.89;58.28;99865.53;5133918;27;20059;-58
2022/10/14 10:53:40;;;;;;;1.95;1.35;;;;;;;19.86;58.02;99869.97;5133303;27;20124;-57
2022/10/14 10:56:14;;;;;;;1.63;1.00;;;;;;;19.82;58.71;99860.66;5128634;27;20071;-58
2022/10/14 10:58:49;;;;;;;1.50;0.90;;;;;;;20.03;58.08;99859.16;5123038;27;20051;-58
2022/10/14 11:01:37;;;;;;;1.98;0.93;;;;;;;20.07;58.47;99845.84;5131168;27;20047;-57
2022/10/14 11:04:25;;;;;;;1.70;1.20;;;;;;;20.22;57.33;99847.56;5121792;27;20054;-57
2022/10/14 11:12:49;;;;;;;2.28;1.35;;;;;;;19.92;58.04;99847.78;5145885;27;20061;-57
2022/10/14 11:15:37;;;;;;;2.28;1.58;;;;;;;19.82;58.84;99840.88;5147171;27;20051;-57
2022/10/14 11:18:11;;;;;;;3.70;1.60;;;;;;;19.83;58.56;99831.16;5144971;27;20065;-58
2022/10/14 11:20:49;;;;;;;2.10;1.60;;;;;;;20.04;58.96;99836.16;5151581;27;20419;-57
2022/10/14 11:23:36;;;;;;;2.80;2.40;;;;;;;19.73;58.81;99836.75;5137570;27;20055;-58
2022/10/14 11:26:14;;;;;;;3.97;2.80;;;;;;;19.47;58.93;99839.34;5140213;27;20058;-57
2022/10/14 11:28:50;;;;;;;3.33;2.72;;;;;;;19.51;59.92;99821.59;5149411;27;20051;-57
2022/10/14 11:31:28;;;;;;;3.75;2.75;;;;;;;19.52;58.66;99820.41;5141242;27;20066;-58
2022/10/14 11:34:17;;;;;;;4.63;3.70;;;;;;;19.45;59.91;99815.50;5139307;27;20057;-58
2022/10/14 11:36:54;;;;;;;4.47;3.60;;;;;;;19.29;59.94;99818.59;5150223;27;20517;-57
2022/10/14 11:39:38;;;;;;;3.83;3.28;;;;;;;19.33;59.14;99819.44;5145172;27;20051;-57
2022/10/14 11:42:19;;;;;;;6.20;3.92;;;;;;;19.80;58.94;99812.19;5140132;27;20054;-57
2022/10/14 11:44:53;;;;;;;4.10;3.30;;;;;;;19.98;58.46;99809.44;5132343;27;20051;-57
2022/10/14 11:47:25;;;;;;;4.30;3.42;;;;;;;19.82;58.78;99811.75;5153704;27;20513;-58